createdAt,value
2022-11-27T00:02:20.140Z,2.70
2022-11-27T00:04:50.868Z,2.40
2022-11-27T00:07:21.595Z,2.70
2022-11-27T00:09:52.386Z,2.80
2022-11-27T00:12:23.045Z,2.50
2022-11-27T00:14:55.726Z,2.50
2022-11-27T00:17:26.542Z,3.00
2022-11-27T00:19:57.159Z,2.90
2022-11-27T00:22:27.975Z,2.70
2022-11-27T00:24:58.654Z,2.50
2022-11-27T00:27:29.516Z,2.40
2022-11-27T00:30:00.187Z,2.90
2022-11-27T00:32:30.832Z,2.60
2022-11-27T00:35:01.614Z,2.90
2022-11-27T00:37:32.241Z,2.50
2022-11-27T00:40:02.857Z,2.70
2022-11-27T00:42:33.452Z,2.60
2022-11-27T00:45:04.459Z,2.50
2022-11-27T00:47:35.047Z,3.00
2022-11-27T00:50:06.676Z,3.20
2022-11-27T00:52:37.280Z,2.80
2022-11-27T00:55:10.069Z,2.50
2022-11-27T00:57:40.925Z,2.70
2022-11-27T01:00:13.802Z,2.50
2022-11-27T01:02:44.767Z,2.80
2022-11-27T01:05:15.491Z,2.50
2022-11-27T01:07:46.131Z,3.20
2022-11-27T01:10:16.855Z,2.80
2022-11-27T01:12:49.575Z,3.20
2022-11-27T01:15:20.291Z,2.90
2022-11-27T01:17:50.881Z,3.10
2022-11-27T01:20:21.712Z,2.70
2022-11-27T01:22:52.383Z,2.50
2022-11-27T01:25:26.762Z,2.50
2022-11-27T01:27:57.719Z,2.70
2022-11-27T01:30:28.479Z,3.00
2022-11-27T01:32:59.067Z,2.30
2022-11-27T01:35:29.703Z,2.90
2022-11-27T01:38:00.317Z,2.30
2022-11-27T01:40:30.991Z,2.50
2022-11-27T01:43:01.858Z,2.30
2022-11-27T01:45:32.968Z,2.50
2022-11-27T01:48:04.580Z,2.60
2022-11-27T01:50:39.284Z,2.50
2022-11-27T01:53:14.750Z,2.50
2022-11-27T01:55:48.839Z,2.40
2022-11-27T01:58:23.660Z,2.80
2022-11-27T02:00:54.781Z,2.30
2022-11-27T02:03:25.534Z,2.70
2022-11-27T02:05:56.408Z,2.60
2022-11-27T02:08:27.350Z,2.80
2022-11-27T02:11:14.157Z,2.80
2022-11-27T02:13:49.767Z,2.50
2022-11-27T02:16:26.174Z,2.70
2022-11-27T02:19:01.472Z,2.60
2022-11-27T02:21:39.905Z,2.70
2022-11-27T02:24:40.791Z,2.70
2022-11-27T02:27:54.522Z,2.40
2022-11-27T02:30:25.294Z,2.70
2022-11-27T02:33:01.223Z,2.30
2022-11-27T02:35:38.368Z,2.30
2022-11-27T02:38:11.775Z,2.60
2022-11-27T02:40:47.703Z,2.80
2022-11-27T02:43:23.854Z,2.50
2022-11-27T02:45:54.871Z,2.70
2022-11-27T02:48:30.595Z,2.60
2022-11-27T02:51:01.912Z,2.80
2022-11-27T02:53:38.029Z,2.40
2022-11-27T02:56:13.130Z,2.60
2022-11-27T02:58:46.807Z,3.30
2022-11-27T03:01:20.472Z,2.80
2022-11-27T03:06:30.489Z,2.60
2022-11-27T03:09:08.086Z,2.40
2022-11-27T03:11:40.527Z,3.10
2022-11-27T03:14:13.659Z,2.40
2022-11-27T03:16:50.613Z,2.40
2022-11-27T03:19:24.450Z,2.60
2022-11-27T03:21:57.575Z,3.00
2022-11-27T03:24:29.539Z,2.50
2022-11-27T03:27:02.339Z,2.70
2022-11-27T03:29:38.480Z,2.60
2022-11-27T03:32:09.951Z,2.50
2022-11-27T03:34:41.126Z,2.60
2022-11-27T03:37:12.268Z,2.60
2022-11-27T03:39:43.326Z,2.40
2022-11-27T03:42:24.093Z,2.80
2022-11-27T03:45:05.530Z,2.60
2022-11-27T03:47:50.627Z,2.40
2022-11-27T03:50:35.036Z,2.40
2022-11-27T03:53:15.212Z,2.70
2022-11-27T03:55:54.636Z,2.60
2022-11-27T03:58:34.075Z,2.60
2022-11-27T04:01:09.794Z,2.60
2022-11-27T04:03:40.461Z,2.60
2022-11-27T04:06:11.901Z,2.90
2022-11-27T04:08:43.002Z,2.60
2022-11-27T04:11:13.753Z,2.50
2022-11-27T04:13:44.493Z,2.70
2022-11-27T04:16:15.262Z,2.50
2022-11-27T04:18:46.175Z,2.90
2022-11-27T04:21:17.627Z,2.40
2022-11-27T04:23:48.285Z,2.50
2022-11-27T04:26:18.876Z,3.00
2022-11-27T04:28:49.648Z,2.80
2022-11-27T04:31:20.276Z,2.60
2022-11-27T04:33:50.889Z,2.40
2022-11-27T04:36:21.647Z,2.50
2022-11-27T04:38:52.279Z,2.90
2022-11-27T04:41:22.985Z,2.50
2022-11-27T04:43:53.642Z,2.70
2022-11-27T04:46:24.312Z,2.50
2022-11-27T04:48:54.919Z,2.60
2022-11-27T04:51:25.954Z,2.30
2022-11-27T04:53:57.000Z,2.40
2022-11-27T04:56:27.854Z,2.30
2022-11-27T04:58:58.450Z,2.60
2022-11-27T05:01:29.424Z,2.70
2022-11-27T05:04:00.272Z,2.30
2022-11-27T05:06:30.863Z,2.50
2022-11-27T05:09:02.331Z,2.30
2022-11-27T05:11:33.909Z,2.90
2022-11-27T05:14:17.969Z,2.70
2022-11-27T05:16:50.420Z,2.30
2022-11-27T05:19:22.977Z,2.50
2022-11-27T05:21:53.857Z,2.60
2022-11-27T05:24:26.072Z,2.60
2022-11-27T05:26:57.789Z,2.60
2022-11-27T05:29:29.345Z,2.30
2022-11-27T05:31:59.950Z,2.20
2022-11-27T05:34:30.615Z,2.70
2022-11-27T05:37:01.315Z,2.40
2022-11-27T05:39:32.505Z,2.40
2022-11-27T05:42:03.388Z,2.50
2022-11-27T05:44:34.057Z,2.70
2022-11-27T05:47:04.779Z,2.30
2022-11-27T05:49:35.500Z,2.70
2022-11-27T05:52:06.597Z,2.40
2022-11-27T05:54:37.330Z,2.50
2022-11-27T05:57:08.175Z,2.40
2022-11-27T05:59:38.913Z,2.30
2022-11-27T06:02:09.813Z,2.50
2022-11-27T06:04:41.999Z,2.60
2022-11-27T06:07:13.043Z,2.50
2022-11-27T06:09:43.808Z,2.50
2022-11-27T06:12:14.773Z,2.40
2022-11-27T06:14:45.590Z,3.30
2022-11-27T06:17:16.914Z,2.80
2022-11-27T06:19:47.555Z,2.50
2022-11-27T06:22:18.261Z,2.40
2022-11-27T06:24:49.064Z,2.60
2022-11-27T06:27:19.733Z,2.50
2022-11-27T06:29:50.530Z,2.60
2022-11-27T06:32:21.166Z,2.50
2022-11-27T06:34:52.078Z,2.10
2022-11-27T06:37:22.722Z,2.20
2022-11-27T06:39:53.521Z,2.20
2022-11-27T06:42:24.223Z,2.20
2022-11-27T06:44:55.010Z,2.10
2022-11-27T06:47:25.718Z,2.00
2022-11-27T06:49:56.404Z,2.50
2022-11-27T06:52:27.128Z,2.30
2022-11-27T06:54:57.793Z,2.40
2022-11-27T06:57:28.752Z,2.00
2022-11-27T06:59:59.485Z,2.00
2022-11-27T07:02:30.296Z,2.20
2022-11-27T07:05:01.086Z,2.30
2022-11-27T07:07:31.859Z,2.30
2022-11-27T07:10:02.651Z,2.10
2022-11-27T07:12:33.839Z,2.50
2022-11-27T07:15:04.715Z,2.70
2022-11-27T07:17:35.497Z,2.00
2022-11-27T07:20:07.628Z,2.60
2022-11-27T07:22:38.378Z,2.20
2022-11-27T07:25:10.652Z,2.20
2022-11-27T07:27:41.533Z,2.20
2022-11-27T07:30:14.051Z,2.30
2022-11-27T07:32:44.825Z,2.40
2022-11-27T07:35:15.841Z,2.40
2022-11-27T07:37:46.595Z,2.20
2022-11-27T07:40:18.350Z,2.30
2022-11-27T07:42:49.093Z,2.30
2022-11-27T07:45:20.024Z,2.40
2022-11-27T07:47:50.776Z,2.20
2022-11-27T07:50:21.754Z,2.30
2022-11-27T07:52:52.565Z,2.30
2022-11-27T07:55:23.498Z,2.10
2022-11-27T07:57:54.187Z,2.40
2022-11-27T08:00:25.798Z,2.00
2022-11-27T08:02:56.580Z,2.40
2022-11-27T08:05:27.408Z,2.20
2022-11-27T08:08:00.545Z,2.40
2022-11-27T08:10:31.357Z,2.40
2022-11-27T08:13:02.154Z,2.50
2022-11-27T08:15:33.275Z,2.70
2022-11-27T08:18:04.033Z,2.40
2022-11-27T08:20:34.764Z,2.20
2022-11-27T08:23:05.574Z,2.50
2022-11-27T08:25:36.346Z,2.90
2022-11-27T08:28:07.697Z,3.30
2022-11-27T08:30:38.486Z,3.70
2022-11-27T08:33:10.478Z,3.30
2022-11-27T08:35:41.648Z,4.10
2022-11-27T08:38:12.442Z,4.00
2022-11-27T08:40:43.291Z,5.00
2022-11-27T08:43:14.062Z,4.40
2022-11-27T08:45:44.767Z,4.80
2022-11-27T08:48:15.642Z,5.20
2022-11-27T08:50:46.549Z,4.80
2022-11-27T08:53:17.987Z,5.30
2022-11-27T08:55:49.251Z,5.90
2022-11-27T08:58:20.081Z,5.60
2022-11-27T09:00:50.818Z,5.50
2022-11-27T09:03:21.551Z,5.60
2022-11-27T09:05:52.348Z,6.00
2022-11-27T09:08:23.084Z,5.90
2022-11-27T09:10:53.827Z,5.80
2022-11-27T09:13:24.817Z,5.20
2022-11-27T09:15:56.663Z,5.60
2022-11-27T09:18:27.880Z,5.50
2022-11-27T09:21:03.676Z,5.30
2022-11-27T09:23:34.746Z,5.30
2022-11-27T09:26:07.633Z,5.20
2022-11-27T09:28:39.829Z,4.60
2022-11-27T09:31:13.045Z,5.20
2022-11-27T09:33:44.609Z,4.90
2022-11-27T09:36:17.674Z,5.30
2022-11-27T09:38:48.649Z,5.00
2022-11-27T09:41:43.613Z,5.40
2022-11-27T09:44:38.465Z,4.90
2022-11-27T09:47:16.433Z,4.50
2022-11-27T09:49:52.246Z,4.80
2022-11-27T09:52:30.546Z,4.00
2022-11-27T09:55:07.443Z,5.00
2022-11-27T09:57:41.974Z,5.00
2022-11-27T10:00:18.774Z,5.50
2022-11-27T10:02:49.767Z,5.00
2022-11-27T10:05:24.106Z,5.30
2022-11-27T10:08:12.100Z,5.70
2022-11-27T10:10:57.819Z,5.00
2022-11-27T10:13:42.372Z,5.70
2022-11-27T10:16:23.271Z,5.70
2022-11-27T10:18:57.005Z,5.60
2022-11-27T10:24:09.237Z,5.50
2022-11-27T10:26:47.053Z,5.50
2022-11-27T10:29:31.718Z,5.50
2022-11-27T10:32:06.414Z,4.90
2022-11-27T10:34:43.051Z,5.10
2022-11-27T10:37:20.673Z,4.90
2022-11-27T10:39:55.278Z,4.50
2022-11-27T10:42:33.653Z,4.70
2022-11-27T10:45:18.410Z,5.30
2022-11-27T10:47:49.766Z,5.80
2022-11-27T10:50:21.663Z,6.10
2022-11-27T10:52:58.502Z,5.50
2022-11-27T10:55:41.343Z,5.60
2022-11-27T10:58:18.518Z,5.50
2022-11-27T11:00:50.198Z,4.90
2022-11-27T11:03:21.103Z,5.20
2022-11-27T11:06:19.943Z,6.00
2022-11-27T11:09:02.490Z,5.20
2022-11-27T11:11:33.600Z,5.50
2022-11-27T11:14:04.487Z,5.30
2022-11-27T11:16:43.336Z,5.70
2022-11-27T11:19:25.755Z,6.00
2022-11-27T11:21:56.682Z,6.70
2022-11-27T11:24:31.069Z,6.90
2022-11-27T11:27:06.188Z,6.70
2022-11-27T11:29:39.286Z,6.70
2022-11-27T11:32:13.776Z,6.30
2022-11-27T11:34:47.751Z,6.00
2022-11-27T11:37:26.812Z,6.20
2022-11-27T11:40:01.042Z,6.10
2022-11-27T11:42:33.762Z,5.60
2022-11-27T11:45:17.716Z,6.30
2022-11-27T11:47:50.753Z,6.50
2022-11-27T11:50:31.868Z,6.30
2022-11-27T11:53:09.685Z,5.90
2022-11-27T11:55:47.884Z,7.70
2022-11-27T11:58:45.426Z,6.40
2022-11-27T12:01:31.728Z,7.10
2022-11-27T12:04:17.752Z,7.90
2022-11-27T12:07:05.766Z,10.60
2022-11-27T12:09:47.488Z,10.50
2022-11-27T12:12:30.205Z,11.70
2022-11-27T12:15:11.311Z,12.00
2022-11-27T12:17:56.466Z,13.30
2022-11-27T12:20:34.956Z,14.00
2022-11-27T12:23:34.382Z,13.90
2022-11-27T12:26:16.584Z,13.50
2022-11-27T12:29:19.961Z,13.90
2022-11-27T12:32:09.330Z,14.20
2022-11-27T12:34:55.808Z,15.50
2022-11-27T12:37:40.416Z,15.20
2022-11-27T12:40:25.340Z,15.70
2022-11-27T12:43:03.145Z,16.70
2022-11-27T12:45:38.091Z,15.70
2022-11-27T12:48:18.381Z,16.20
2022-11-27T12:50:52.672Z,16.80
2022-11-27T12:53:29.952Z,16.30
2022-11-27T12:56:09.974Z,17.00
2022-11-27T12:58:45.571Z,15.90
2022-11-27T13:01:26.280Z,17.40
2022-11-27T13:04:11.776Z,16.90
2022-11-27T13:06:54.249Z,18.40
2022-11-27T13:09:36.083Z,17.70
2022-11-27T13:12:08.592Z,18.40
2022-11-27T13:14:43.831Z,21.50
2022-11-27T13:17:18.158Z,19.60
2022-11-27T13:19:51.346Z,20.40
2022-11-27T13:22:32.211Z,19.50
2022-11-27T13:25:05.353Z,20.20
2022-11-27T13:27:39.203Z,20.00
2022-11-27T13:30:20.206Z,19.70
2022-11-27T13:32:54.837Z,19.30
2022-11-27T13:35:31.271Z,18.50
2022-11-27T13:38:09.972Z,18.80
2022-11-27T13:40:43.231Z,18.40
2022-11-27T13:43:29.416Z,19.40
2022-11-27T13:46:12.095Z,18.30
2022-11-27T13:48:48.720Z,18.80
2022-11-27T13:51:28.335Z,19.20
2022-11-27T13:54:10.776Z,19.10
2022-11-27T13:56:42.052Z,19.10
2022-11-27T13:59:24.383Z,18.40
2022-11-27T14:02:03.387Z,18.80
2022-11-27T14:04:35.251Z,18.00
2022-11-27T14:07:11.477Z,17.90
2022-11-27T14:09:46.219Z,18.20
2022-11-27T14:12:24.998Z,18.60
2022-11-27T14:15:08.856Z,17.70
2022-11-27T14:17:43.241Z,17.20
2022-11-27T14:20:30.065Z,17.90
2022-11-27T14:23:17.540Z,17.80
2022-11-27T14:25:48.526Z,17.90
2022-11-27T14:28:26.065Z,18.70
2022-11-27T14:30:59.336Z,18.20
2022-11-27T14:33:33.132Z,17.50
2022-11-27T14:36:08.917Z,17.40
2022-11-27T14:38:39.960Z,17.30
2022-11-27T14:41:18.679Z,17.00
2022-11-27T14:43:50.027Z,16.40
2022-11-27T14:46:23.246Z,16.40
2022-11-27T14:48:56.197Z,16.20
2022-11-27T14:51:29.447Z,16.60
2022-11-27T14:54:03.383Z,16.80
2022-11-27T14:56:38.755Z,16.40
2022-11-27T14:59:14.927Z,17.10
2022-11-27T15:01:47.338Z,19.20
2022-11-27T15:04:31.041Z,18.40
2022-11-27T15:07:02.672Z,19.30
2022-11-27T15:09:36.039Z,18.10
2022-11-27T15:12:17.829Z,18.10
2022-11-27T15:14:56.535Z,18.90
2022-11-27T15:17:30.306Z,18.40
2022-11-27T15:20:04.217Z,18.30
2022-11-27T15:22:36.919Z,18.60
2022-11-27T15:25:29.051Z,18.20
2022-11-27T15:28:00.075Z,20.50
2022-11-27T15:30:31.049Z,17.10
2022-11-27T15:33:01.964Z,17.30
2022-11-27T15:35:35.456Z,18.20
2022-11-27T15:38:12.335Z,17.70
2022-11-27T15:40:43.500Z,16.70
2022-11-27T15:43:17.041Z,16.90
2022-11-27T15:45:47.843Z,16.40
2022-11-27T15:48:20.364Z,16.80
2022-11-27T15:50:52.040Z,17.80
2022-11-27T15:53:22.986Z,17.20
2022-11-27T15:55:53.742Z,17.90
2022-11-27T15:58:24.584Z,18.20
2022-11-27T16:00:55.576Z,17.40
2022-11-27T16:03:26.646Z,18.30
2022-11-27T16:05:57.790Z,18.90
2022-11-27T16:08:28.986Z,17.60
2022-11-27T16:11:03.468Z,19.40
2022-11-27T16:13:34.576Z,17.80
2022-11-27T16:16:07.538Z,18.60
2022-11-27T16:18:38.590Z,18.50
2022-11-27T16:21:12.900Z,17.70
2022-11-27T16:23:44.232Z,19.50
2022-11-27T16:26:15.854Z,18.70
2022-11-27T16:28:46.760Z,18.40
2022-11-27T16:31:17.844Z,21.50
2022-11-27T16:33:48.874Z,19.40
2022-11-27T16:36:21.158Z,20.50
2022-11-27T16:38:52.753Z,18.40
2022-11-27T16:41:24.643Z,19.30
2022-11-27T16:43:57.796Z,19.10
2022-11-27T16:46:29.980Z,17.70
2022-11-27T16:49:01.612Z,19.30
2022-11-27T16:51:34.035Z,19.50
2022-11-27T16:54:07.313Z,18.60
2022-11-27T16:56:38.929Z,19.10
2022-11-27T16:59:12.749Z,18.60
2022-11-27T17:01:44.505Z,19.10
2022-11-27T17:04:19.657Z,19.10
2022-11-27T17:06:51.277Z,18.80
2022-11-27T17:09:24.955Z,20.90
2022-11-27T17:11:56.562Z,20.40
2022-11-27T17:14:27.865Z,18.70
2022-11-27T17:16:58.938Z,19.20
2022-11-27T17:19:31.820Z,18.90
2022-11-27T17:22:02.735Z,19.60
2022-11-27T17:24:35.961Z,18.50
2022-11-27T17:27:07.083Z,18.30
2022-11-27T17:29:38.151Z,18.40
2022-11-27T17:32:11.126Z,17.80
2022-11-27T17:34:41.989Z,17.80
2022-11-27T17:37:13.457Z,18.00
2022-11-27T17:39:44.454Z,22.20
2022-11-27T17:42:22.265Z,19.10
2022-11-27T17:44:53.935Z,20.40
2022-11-27T17:47:24.956Z,21.40
2022-11-27T17:49:56.130Z,19.10
2022-11-27T17:52:27.228Z,18.80
2022-11-27T17:54:58.605Z,20.10
2022-11-27T17:57:29.754Z,19.70
2022-11-27T18:00:00.798Z,19.20
2022-11-27T18:02:31.898Z,19.70
2022-11-27T18:05:03.027Z,18.70
2022-11-27T18:07:34.027Z,17.90
2022-11-27T18:10:06.519Z,19.40
2022-11-27T18:12:40.099Z,19.20
2022-11-27T18:15:14.582Z,19.10
2022-11-27T18:17:45.422Z,19.30
2022-11-27T18:20:17.041Z,18.20
2022-11-27T18:22:48.775Z,18.80
2022-11-27T18:25:20.662Z,17.60
2022-11-27T18:27:51.613Z,17.50
2022-11-27T18:30:22.687Z,18.10
2022-11-27T18:32:53.820Z,17.80
2022-11-27T18:35:24.971Z,20.10
2022-11-27T18:37:56.041Z,16.50
2022-11-27T18:40:27.304Z,17.70
2022-11-27T18:42:58.292Z,17.40
2022-11-27T18:45:33.473Z,16.40
2022-11-27T18:48:07.386Z,16.00
2022-11-27T18:50:38.626Z,16.90
2022-11-27T18:53:09.792Z,16.90
2022-11-27T18:55:41.454Z,16.50
2022-11-27T18:58:14.070Z,16.70
2022-11-27T19:00:46.067Z,16.90
2022-11-27T19:03:17.284Z,16.80
2022-11-27T19:05:48.330Z,15.00
2022-11-27T19:08:19.336Z,16.20
2022-11-27T19:10:50.769Z,15.90
2022-11-27T19:13:21.953Z,16.50
2022-11-27T19:15:53.467Z,15.90
2022-11-27T19:18:41.305Z,15.60
2022-11-27T19:21:14.460Z,16.60
2022-11-27T19:23:46.088Z,15.20
2022-11-27T19:26:18.882Z,15.40
2022-11-27T19:28:53.555Z,16.70
2022-11-27T19:31:25.588Z,15.10
2022-11-27T19:33:59.663Z,17.80
2022-11-27T19:36:32.401Z,15.40
2022-11-27T19:39:06.175Z,15.10
2022-11-27T19:41:38.506Z,14.50
2022-11-27T19:44:12.222Z,14.90
2022-11-27T19:46:45.183Z,14.30
2022-11-27T19:49:19.184Z,13.90
2022-11-27T19:51:50.996Z,13.80
2022-11-27T19:54:25.661Z,15.40
2022-11-27T19:56:57.455Z,16.30
2022-11-27T19:59:29.318Z,14.10
2022-11-27T20:02:01.297Z,19.00
2022-11-27T20:04:33.296Z,16.10
2022-11-27T20:07:05.703Z,16.50
2022-11-27T20:09:37.974Z,16.00
2022-11-27T20:12:09.406Z,16.20
2022-11-27T20:14:40.988Z,15.80
2022-11-27T20:17:12.361Z,15.70
2022-11-27T20:19:44.500Z,15.60
2022-11-27T20:22:15.901Z,15.20
2022-11-27T20:25:11.195Z,15.80
2022-11-27T20:27:42.216Z,15.20
2022-11-27T20:30:14.449Z,15.60
2022-11-27T20:32:45.472Z,14.80
2022-11-27T20:35:16.750Z,15.20
2022-11-27T20:37:47.889Z,16.20
2022-11-27T20:40:20.431Z,17.50
2022-11-27T20:42:51.454Z,17.70
2022-11-27T20:45:22.429Z,17.70
2022-11-27T20:47:53.511Z,17.10
2022-11-27T20:50:24.373Z,18.10
2022-11-27T20:52:55.074Z,17.70
2022-11-27T20:55:25.853Z,18.80
2022-11-27T20:57:56.715Z,17.90
2022-11-27T21:00:28.446Z,20.30
2022-11-27T21:02:59.294Z,18.40
2022-11-27T21:05:30.119Z,18.20
2022-11-27T21:08:01.310Z,17.30
2022-11-27T21:10:32.431Z,16.80
2022-11-27T21:13:03.430Z,18.30
2022-11-27T21:15:34.425Z,18.10
2022-11-27T21:18:05.589Z,15.20
2022-11-27T21:20:38.096Z,15.50
2022-11-27T21:23:08.980Z,15.70
2022-11-27T21:25:42.856Z,16.10
2022-11-27T21:28:13.627Z,15.20
2022-11-27T21:30:44.367Z,14.90
2022-11-27T21:33:15.081Z,15.50
2022-11-27T21:35:45.706Z,15.10
2022-11-27T21:38:18.543Z,14.70
2022-11-27T21:40:49.776Z,15.00
2022-11-27T21:43:20.519Z,14.60
2022-11-27T21:45:51.473Z,16.80
2022-11-27T21:48:22.506Z,13.90
2022-11-27T21:50:53.345Z,13.50
2022-11-27T21:53:24.079Z,14.60
2022-11-27T21:55:54.846Z,14.20
2022-11-27T21:58:25.964Z,16.10
2022-11-27T22:00:56.731Z,14.60
2022-11-27T22:03:27.645Z,14.00
2022-11-27T22:06:02.744Z,14.20
2022-11-27T22:08:33.627Z,13.80
2022-11-27T22:11:06.201Z,13.50
2022-11-27T22:13:38.353Z,13.90
2022-11-27T22:16:15.790Z,13.00
2022-11-27T22:18:47.366Z,13.60
2022-11-27T22:21:18.571Z,12.40
2022-11-27T22:23:50.091Z,13.30
2022-11-27T22:26:22.485Z,13.50
2022-11-27T22:28:54.003Z,13.40
2022-11-27T22:31:26.936Z,12.80
2022-11-27T22:33:58.540Z,12.30
2022-11-27T22:36:31.701Z,13.00
2022-11-27T22:39:04.618Z,12.30
2022-11-27T22:41:37.265Z,11.70
2022-11-27T22:44:09.589Z,12.80
2022-11-27T22:46:42.835Z,12.60
2022-11-27T22:49:15.823Z,12.50
2022-11-27T22:51:47.053Z,12.30
2022-11-27T22:54:18.677Z,11.90
2022-11-27T22:56:49.682Z,12.80
2022-11-27T22:59:35.819Z,13.00
2022-11-27T23:02:07.355Z,12.10
2022-11-27T23:04:39.043Z,12.10
2022-11-27T23:07:11.087Z,11.80
2022-11-27T23:09:42.371Z,11.80
2022-11-27T23:12:13.072Z,12.20
2022-11-27T23:14:46.540Z,11.70
2022-11-27T23:17:17.448Z,11.00
2022-11-27T23:19:48.106Z,11.20
2022-11-27T23:22:18.824Z,11.10
2022-11-27T23:24:49.491Z,11.70
2022-11-27T23:27:20.136Z,10.60
2022-11-27T23:29:51.271Z,11.30
2022-11-27T23:32:22.056Z,10.50
2022-11-27T23:34:52.953Z,10.80
2022-11-27T23:37:23.588Z,11.50
2022-11-27T23:39:54.435Z,10.80
2022-11-27T23:42:25.064Z,11.10
2022-11-27T23:44:55.647Z,10.50
2022-11-27T23:47:26.540Z,11.40
2022-11-27T23:49:57.397Z,11.10
2022-11-27T23:52:28.220Z,10.70
2022-11-27T23:54:58.876Z,10.60
2022-11-27T23:57:29.577Z,10.70
